Time;durP1;ratioP1;P1;durP2;ratioP2;P2;SDS_P1;SDS_P2;PMS_P1;PMS_P2;Temp;Humidity;BMP_temperature;BMP_pressure;BME280_temperature;BME280_humidity;BME280_pressure;Samples;Min_cycle;Max_cycle;Signal;HPM_P1;HPM_P2
2022/06/16 00:00:09;;;;;;;6.10;5.57;;;24.50;57.10;;;;;;5096269;28;20186;-85
2022/06/16 00:02:48;;;;;;;6.75;6.15;;;24.40;57.20;;;;;;5098827;28;20181;-85
2022/06/16 00:05:17;;;;;;;7.10;6.43;;;24.30;58.00;;;;;;5075860;28;20187;-86
2022/06/16 00:07:43;;;;;;;5.95;5.45;;;24.30;58.10;;;;;;5085608;28;20247;-86
2022/06/16 00:10:10;;;;;;;5.95;5.45;;;24.30;57.80;;;;;;5096439;28;20195;-86
2022/06/16 00:12:37;;;;;;;7.35;6.07;;;24.40;57.10;;;;;;5089881;28;20210;-86
2022/06/16 00:15:05;;;;;;;6.53;6.00;;;24.30;58.30;;;;;;5088692;28;20660;-86
2022/06/16 00:17:31;;;;;;;7.70;5.72;;;24.30;57.70;;;;;;5093258;28;20350;-85
2022/06/16 00:19:57;;;;;;;6.55;6.03;;;24.30;58.40;;;;;;5104283;28;20202;-85
2022/06/16 00:22:22;;;;;;;6.38;5.82;;;24.20;58.00;;;;;;5086729;28;20195;-85
2022/06/16 00:24:48;;;;;;;6.32;5.82;;;24.20;57.90;;;;;;5086026;28;20306;-86
2022/06/16 00:27:14;;;;;;;7.63;6.20;;;24.20;57.80;;;;;;5069197;28;20211;-86
2022/06/16 00:29:39;;;;;;;6.53;5.68;;;24.20;57.80;;;;;;5085935;28;20175;-85
2022/06/16 00:32:06;;;;;;;7.40;6.70;;;23.90;58.60;;;;;;5089414;28;20270;-85
2022/06/16 00:34:32;;;;;;;10.18;6.07;;;23.80;59.30;;;;;;5088764;28;20184;-86
2022/06/16 00:36:57;;;;;;;6.32;5.82;;;23.70;59.40;;;;;;5087492;28;20195;-85
2022/06/16 00:39:23;;;;;;;6.57;6.03;;;23.60;59.50;;;;;;5086274;28;20196;-86
2022/06/16 00:41:49;;;;;;;6.25;5.65;;;23.70;59.10;;;;;;5086217;28;20195;-85
2022/06/16 00:44:38;;;;;;;6.78;6.18;;;23.70;59.30;;;;;;5086984;28;20238;-85
2022/06/16 00:47:04;;;;;;;7.03;6.32;;;23.70;59.00;;;;;;5098575;28;20197;-85
2022/06/16 00:49:30;;;;;;;7.57;5.80;;;23.70;59.60;;;;;;5095233;28;20190;-85
2022/06/16 00:52:02;;;;;;;6.82;6.00;;;23.50;60.40;;;;;;5096164;28;20207;-85
2022/06/16 00:54:41;;;;;;;6.90;6.18;;;23.40;60.80;;;;;;5092165;28;20214;-85
2022/06/16 00:57:16;;;;;;;6.30;5.80;;;23.40;60.10;;;;;;5101014;28;20175;-85
2022/06/16 00:59:43;;;;;;;8.00;5.85;;;23.40;59.70;;;;;;5107349;28;20161;-85
2022/06/16 01:02:09;;;;;;;5.88;5.30;;;23.40;59.70;;;;;;5078951;28;20193;-86
2022/06/16 01:04:51;;;;;;;6.65;6.10;;;23.40;59.40;;;;;;5089882;28;20215;-85
2022/06/16 01:07:25;;;;;;;6.22;5.60;;;23.50;59.40;;;;;;5073339;28;20195;-85
2022/06/16 01:09:53;;;;;;;6.50;5.85;;;23.40;59.30;;;;;;5090089;28;20621;-86
2022/06/16 01:15:43;;;;;;;6.55;5.78;;;22.80;61.30;;;;;;5083377;28;20244;-85
2022/06/16 01:18:25;;;;;;;23.45;7.50;;;22.60;62.70;;;;;;5070712;28;20175;-85
2022/06/16 01:20:51;;;;;;;6.22;5.70;;;22.80;61.90;;;;;;5078022;28;20555;-85
2022/06/16 01:23:32;;;;;;;6.38;5.80;;;22.90;61.00;;;;;;5085974;28;20218;-85
2022/06/16 01:26:23;;;;;;;6.45;5.95;;;23.00;60.40;;;;;;5084158;28;20210;-86
2022/06/16 01:29:10;;;;;;;9.45;6.32;;;22.90;60.90;;;;;;5078607;28;20182;-86
2022/06/16 01:31:39;;;;;;;8.73;5.90;;;23.00;60.30;;;;;;5070281;28;20204;-85
2022/06/16 01:34:14;;;;;;;7.00;5.97;;;23.00;60.20;;;;;;5093577;28;20214;-85
2022/06/16 01:36:58;;;;;;;6.53;5.95;;;22.90;60.60;;;;;;5090938;28;20178;-85
2022/06/16 01:39:38;;;;;;;6.20;5.65;;;23.00;60.40;;;;;;5072233;28;20182;-85
2022/06/16 01:42:12;;;;;;;6.50;6.00;;;22.80;61.10;;;;;;5090596;28;20191;-85
2022/06/16 01:44:48;;;;;;;6.30;5.80;;;22.40;63.10;;;;;;5086627;28;20319;-85
2022/06/16 01:47:18;;;;;;;6.82;6.30;;;22.00;65.40;;;;;;5071310;28;20214;-85
2022/06/16 01:49:55;;;;;;;6.63;6.03;;;21.80;66.00;;;;;;5090339;28;20209;-85
2022/06/16 01:52:26;;;;;;;8.77;6.28;;;21.90;65.20;;;;;;5087532;28;20619;-86
2022/06/16 01:55:01;;;;;;;7.15;5.72;;;21.90;64.70;;;;;;5075963;28;20250;-85
2022/06/16 01:57:50;;;;;;;6.50;5.90;;;22.00;64.40;;;;;;5087906;28;20235;-85
2022/06/16 02:00:20;;;;;;;7.22;6.53;;;22.10;63.70;;;;;;5059194;28;20222;-85
2022/06/16 02:02:53;;;;;;;6.38;5.97;;;21.60;65.70;;;;;;5084492;28;20229;-85
2022/06/16 02:05:25;;;;;;;6.28;5.72;;;21.50;67.10;;;;;;5070255;28;20211;-85
2022/06/16 02:08:02;;;;;;;7.10;5.78;;;21.60;66.20;;;;;;5079588;28;20255;-85
2022/06/16 02:10:33;;;;;;;6.65;6.15;;;21.80;65.10;;;;;;5066037;28;20244;-85
2022/06/16 02:13:04;;;;;;;6.15;5.65;;;21.90;64.30;;;;;;5075861;28;20211;-85
2022/06/16 02:15:36;;;;;;;6.82;6.22;;;21.90;64.10;;;;;;5078787;28;20184;-85
2022/06/16 02:18:05;;;;;;;7.10;6.53;;;21.90;64.10;;;;;;5088606;28;20168;-84
2022/06/16 02:20:45;;;;;;;7.05;6.28;;;21.80;65.20;;;;;;5090018;28;20199;-85
2022/06/16 02:23:11;;;;;;;8.85;7.10;;;21.30;67.10;;;;;;5092015;28;20245;-86
2022/06/16 02:25:37;;;;;;;6.60;6.10;;;21.00;68.70;;;;;;5087272;28;20199;-85
2022/06/16 02:28:03;;;;;;;6.85;6.10;;;20.80;69.30;;;;;;5090115;28;20243;-85
2022/06/16 02:30:34;;;;;;;6.75;6.10;;;20.70;69.70;;;;;;5086617;28;20188;-85
2022/06/16 02:33:11;;;;;;;6.60;6.07;;;20.50;71.00;;;;;;5099923;28;20227;-85
2022/06/16 02:35:48;;;;;;;6.93;6.32;;;20.60;70.10;;;;;;5074949;28;20216;-85
2022/06/16 02:38:23;;;;;;;8.45;6.07;;;20.80;69.00;;;;;;5082129;28;20240;-84
2022/06/16 02:41:11;;;;;;;10.50;6.30;;;21.00;67.70;;;;;;5100094;28;20170;-86
2022/06/16 02:43:37;;;;;;;7.15;5.97;;;21.30;66.10;;;;;;5090475;28;20215;-85
2022/06/16 02:46:13;;;;;;;7.22;6.53;;;21.40;65.00;;;;;;5069327;28;20248;-85
2022/06/16 02:48:52;;;;;;;6.90;6.30;;;21.50;65.20;;;;;;5087915;28;20582;-85
2022/06/16 02:51:26;;;;;;;7.18;6.50;;;21.40;65.60;;;;;;5104629;28;20258;-85
2022/06/16 02:53:57;;;;;;;7.30;5.85;;;21.30;66.00;;;;;;5076767;28;20274;-85
2022/06/16 02:56:43;;;;;;;6.60;6.10;;;21.30;65.90;;;;;;5089501;28;20168;-85
2022/06/16 02:59:19;;;;;;;6.97;6.30;;;21.50;65.10;;;;;;5087288;28;20203;-85
2022/06/16 03:01:45;;;;;;;6.90;6.13;;;21.40;65.90;;;;;;5070211;28;20182;-85
2022/06/16 03:04:17;;;;;;;6.57;6.07;;;21.00;67.70;;;;;;5058993;28;20231;-85
2022/06/16 03:06:45;;;;;;;6.53;5.93;;;21.00;66.80;;;;;;5087602;28;20218;-85
2022/06/16 03:09:12;;;;;;;5.97;5.47;;;21.10;66.50;;;;;;5069198;28;20196;-84
2022/06/16 03:11:39;;;;;;;6.15;5.63;;;21.30;65.90;;;;;;5088105;28;20208;-84
2022/06/16 03:14:05;;;;;;;6.68;6.07;;;21.40;65.50;;;;;;5086615;28;20215;-85
2022/06/16 03:16:31;;;;;;;6.93;6.20;;;21.30;65.80;;;;;;5087783;28;20298;-84
2022/06/16 03:18:57;;;;;;;9.55;6.32;;;20.80;67.90;;;;;;5085157;28;20217;-84
2022/06/16 03:21:23;;;;;;;7.85;5.80;;;20.80;69.00;;;;;;5092556;28;20178;-84
2022/06/16 03:23:49;;;;;;;8.90;6.18;;;21.00;67.50;;;;;;5078508;28;20305;-84
2022/06/16 03:26:15;;;;;;;6.57;6.07;;;21.10;67.70;;;;;;5072328;28;20248;-85
2022/06/16 03:28:41;;;;;;;6.18;5.63;;;21.00;67.90;;;;;;5096965;28;20213;-84
2022/06/16 03:31:07;;;;;;;8.23;6.13;;;21.10;67.80;;;;;;5082061;28;20194;-85
2022/06/16 03:33:33;;;;;;;7.20;6.18;;;21.10;67.30;;;;;;5072510;28;20677;-84
2022/06/16 03:35:59;;;;;;;6.18;5.65;;;21.30;66.80;;;;;;5086661;28;20548;-84
2022/06/16 03:38:41;;;;;;;8.88;5.88;;;21.20;67.60;;;;;;5087962;28;20213;-84
2022/06/16 03:41:07;;;;;;;7.50;6.10;;;20.70;70.10;;;;;;5072533;28;20191;-85
2022/06/16 03:43:32;;;;;;;9.23;6.05;;;20.70;69.50;;;;;;5090405;28;20285;-85
2022/06/16 03:45:58;;;;;;;6.80;6.20;;;20.80;69.00;;;;;;5089124;28;20209;-84
2022/06/16 03:48:24;;;;;;;6.82;6.22;;;21.00;68.80;;;;;;5101905;28;20645;-85
2022/06/16 03:50:50;;;;;;;9.50;6.38;;;20.80;69.90;;;;;;5090037;28;20187;-84
2022/06/16 03:53:16;;;;;;;7.55;6.32;;;20.70;68.60;;;;;;5084064;28;20243;-84
2022/06/16 03:55:42;;;;;;;15.05;6.60;;;20.90;68.20;;;;;;5086618;28;20729;-84
2022/06/16 03:58:08;;;;;;;9.75;6.15;;;21.10;67.10;;;;;;5105499;28;20187;-84
2022/06/16 04:00:34;;;;;;;6.50;5.90;;;21.10;68.30;;;;;;5078596;28;20283;-84
2022/06/16 04:05:44;;;;;;;7.88;6.40;;;20.90;68.10;;;;;;5089420;28;20275;-85
2022/06/16 04:08:11;;;;;;;9.25;6.40;;;21.10;67.60;;;;;;5072255;28;20186;-85
2022/06/16 04:10:36;;;;;;;15.63;6.50;;;21.20;66.70;;;;;;5060309;28;20203;-85
2022/06/16 04:13:02;;;;;;;7.05;6.10;;;21.20;66.60;;;;;;5072525;28;20231;-84
2022/06/16 04:15:29;;;;;;;8.95;6.10;;;21.10;66.70;;;;;;5088126;28;20194;-85
2022/06/16 04:17:54;;;;;;;25.27;6.63;;;20.80;67.40;;;;;;5093984;28;20697;-85
2022/06/16 04:20:21;;;;;;;7.22;6.20;;;20.80;68.00;;;;;;5074743;28;20186;-85
2022/06/16 04:22:50;;;;;;;10.40;6.13;;;20.80;68.10;;;;;;5070950;28;20191;-84
2022/06/16 04:25:18;;;;;;;7.47;6.35;;;20.90;66.80;;;;;;5071432;28;20195;-84
2022/06/16 04:27:44;;;;;;;7.45;5.63;;;21.00;66.60;;;;;;5060459;28;20199;-84
2022/06/16 04:30:11;;;;;;;8.05;5.75;;;21.10;65.40;;;;;;5071004;28;20195;-85
2022/06/16 04:32:37;;;;;;;6.22;5.72;;;21.00;65.20;;;;;;5089062;28;20578;-85
2022/06/16 04:35:03;;;;;;;11.52;6.18;;;21.00;65.60;;;;;;5080707;28;20193;-84
2022/06/16 04:37:29;;;;;;;7.32;5.55;;;20.80;68.10;;;;;;5099135;28;20384;-85
2022/06/16 04:39:55;;;;;;;24.42;6.57;;;20.80;68.70;;;;;;5088081;28;20191;-84
2022/06/16 04:42:20;;;;;;;22.00;7.78;;;20.80;68.80;;;;;;5089367;28;20195;-85
2022/06/16 04:44:46;;;;;;;8.48;5.82;;;20.70;69.60;;;;;;5074235;28;20223;-84
2022/06/16 04:47:12;;;;;;;564.10;101.65;;;20.70;67.40;;;;;;5071149;28;20211;-85
2022/06/16 04:49:38;;;;;;;8.20;4.97;;;20.60;68.10;;;;;;5063780;28;20212;-85
2022/06/16 04:52:05;;;;;;;7.70;6.35;;;20.60;65.80;;;;;;5054506;28;20215;-84
2022/06/16 04:54:31;;;;;;;711.97;237.18;;;20.80;67.10;;;;;;5106936;28;20687;-84
2022/06/16 04:56:57;;;;;;;6.68;5.80;;;20.80;67.90;;;;;;5089164;28;20219;-85
2022/06/16 04:59:23;;;;;;;307.42;278.00;;;21.00;67.20;;;;;;5079665;28;20442;-84
2022/06/16 05:01:49;;;;;;;228.90;217.98;;;21.20;67.40;;;;;;5058033;28;20195;-84
2022/06/16 05:04:15;;;;;;;289.42;271.75;;;21.30;67.20;;;;;;5091165;28;20207;-85
2022/06/16 05:06:41;;;;;;;405.88;369.90;;;21.20;66.20;;;;;;5084362;28;20199;-85
2022/06/16 05:09:06;;;;;;;872.53;459.92;;;21.30;64.10;;;;;;5095304;28;20278;-84
2022/06/16 05:11:32;;;;;;;100.57;95.40;;;21.50;62.90;;;;;;5074538;28;20211;-84
2022/06/16 05:14:00;;;;;;;8.20;7.63;;;21.70;63.20;;;;;;5076284;28;20211;-85
2022/06/16 05:16:27;;;;;;;8.65;8.02;;;21.70;63.70;;;;;;5088115;28;20705;-85
2022/06/16 05:18:54;;;;;;;417.02;383.52;;;21.70;61.00;;;;;;5105110;28;20191;-85
2022/06/16 05:21:20;;;;;;;195.07;185.90;;;21.50;61.20;;;;;;5070292;28;20257;-85
2022/06/16 05:23:46;;;;;;;7.65;6.95;;;21.60;60.30;;;;;;5068463;28;20573;-85
2022/06/16 05:26:13;;;;;;;11.73;6.55;;;21.80;59.30;;;;;;5083424;28;20183;-85
2022/06/16 05:28:39;;;;;;;6.38;5.88;;;22.00;60.40;;;;;;5066331;28;20375;-84
2022/06/16 05:31:05;;;;;;;6.55;6.13;;;22.00;58.90;;;;;;5085689;28;20190;-84
2022/06/16 05:33:31;;;;;;;8.65;6.30;;;21.80;59.90;;;;;;5081024;28;20226;-84
2022/06/16 05:35:58;;;;;;;6.97;6.38;;;21.90;59.50;;;;;;5088917;28;20188;-84
2022/06/16 05:38:24;;;;;;;6.72;5.80;;;22.00;60.70;;;;;;5086009;28;20255;-84
2022/06/16 05:41:01;;;;;;;6.80;6.30;;;22.10;60.40;;;;;;5093563;28;20187;-85
2022/06/16 05:43:27;;;;;;;6.53;5.93;;;22.20;59.90;;;;;;5080071;28;20234;-85
2022/06/16 05:45:53;;;;;;;7.80;7.13;;;22.30;61.80;;;;;;5074188;28;20199;-84
2022/06/16 05:48:19;;;;;;;7.32;6.82;;;22.40;63.00;;;;;;5083492;28;20200;-85
2022/06/16 05:50:45;;;;;;;7.30;6.65;;;22.40;64.30;;;;;;5072170;28;20203;-84
2022/06/16 05:53:11;;;;;;;7.88;6.97;;;22.50;63.80;;;;;;5085131;28;20302;-84
2022/06/16 05:55:37;;;;;;;7.18;6.68;;;22.60;62.10;;;;;;5086933;28;20250;-84
2022/06/16 05:58:02;;;;;;;7.35;6.75;;;22.70;61.80;;;;;;5088087;28;20217;-84
2022/06/16 06:00:30;;;;;;;7.90;7.00;;;22.70;62.10;;;;;;5088200;28;20244;-85
2022/06/16 06:02:58;;;;;;;8.00;7.20;;;22.80;62.60;;;;;;5089173;28;20195;-85
2022/06/16 06:05:25;;;;;;;7.88;7.13;;;22.90;62.10;;;;;;5082334;28;20183;-85
2022/06/16 06:18:49;;;;;;;7.18;6.57;;;22.80;61.40;;;;;;5089169;28;20197;-86
2022/06/16 06:21:15;;;;;;;6.97;6.40;;;23.00;58.60;;;;;;5080463;28;20278;-85
2022/06/16 06:23:41;;;;;;;8.07;7.18;;;23.10;61.50;;;;;;5080988;28;20203;-85
2022/06/16 06:26:08;;;;;;;7.07;6.53;;;23.20;63.60;;;;;;5098033;28;20175;-85
2022/06/16 06:28:34;;;;;;;6.93;6.32;;;23.20;63.00;;;;;;5083834;28;20184;-85
2022/06/16 06:31:00;;;;;;;6.65;6.25;;;23.30;62.80;;;;;;5076592;28;20194;-85
2022/06/16 06:33:25;;;;;;;7.53;6.82;;;23.40;62.30;;;;;;5061890;28;20639;-85
2022/06/16 06:35:51;;;;;;;6.82;6.18;;;23.60;61.00;;;;;;5087152;28;20189;-85
2022/06/16 06:38:17;;;;;;;7.68;6.97;;;23.80;61.70;;;;;;5078758;28;20477;-85
2022/06/16 06:40:42;;;;;;;7.40;6.57;;;23.80;58.50;;;;;;5080087;28;20278;-85
2022/06/16 06:43:08;;;;;;;7.32;6.72;;;23.80;55.70;;;;;;5062280;28;20204;-85
2022/06/16 06:45:35;;;;;;;7.10;6.32;;;23.70;55.70;;;;;;5080965;28;20306;-85
2022/06/16 06:48:04;;;;;;;7.45;6.53;;;23.90;55.50;;;;;;5079054;28;20187;-85
2022/06/16 06:50:35;;;;;;;6.93;6.43;;;24.00;55.50;;;;;;5081468;28;20187;-85
2022/06/16 06:53:02;;;;;;;6.20;5.68;;;24.10;55.60;;;;;;5081792;28;20218;-85
2022/06/16 06:55:28;;;;;;;6.15;5.65;;;24.00;53.10;;;;;;5080529;28;20237;-85
2022/06/16 06:57:55;;;;;;;6.35;5.57;;;23.70;51.50;;;;;;5081264;28;20530;-85
2022/06/16 07:00:23;;;;;;;6.30;5.43;;;23.50;51.80;;;;;;5094586;28;20191;-85
2022/06/16 07:02:49;;;;;;;5.43;5.03;;;23.60;51.60;;;;;;5066186;28;20191;-85
2022/06/16 07:05:14;;;;;;;6.13;5.53;;;23.60;50.30;;;;;;5090813;28;20201;-85
2022/06/16 07:07:40;;;;;;;6.30;5.70;;;23.70;50.40;;;;;;5075446;28;20229;-85
2022/06/16 07:10:08;;;;;;;6.15;5.65;;;23.80;50.30;;;;;;5086187;28;20225;-85
2022/06/16 07:12:34;;;;;;;5.90;5.47;;;23.90;50.40;;;;;;5096426;28;20206;-84
2022/06/16 07:15:00;;;;;;;6.10;5.60;;;24.00;50.80;;;;;;5086891;28;20203;-85
2022/06/16 07:17:27;;;;;;;5.95;5.43;;;24.10;50.20;;;;;;5082989;28;20187;-85
2022/06/16 07:19:53;;;;;;;6.82;5.97;;;24.20;51.10;;;;;;5085395;28;20176;-84
2022/06/16 07:22:20;;;;;;;6.93;6.32;;;24.10;50.30;;;;;;5089510;28;20217;-84
2022/06/16 07:24:48;;;;;;;6.22;5.63;;;24.10;50.60;;;;;;5083375;28;20219;-85
2022/06/16 07:27:16;;;;;;;6.80;6.03;;;24.10;50.90;;;;;;5087284;28;20327;-84
2022/06/16 07:29:42;;;;;;;6.07;5.57;;;24.30;51.80;;;;;;5091633;28;20191;-85
2022/06/16 07:32:07;;;;;;;7.85;6.10;;;24.30;50.60;;;;;;5089723;28;20215;-85
2022/06/16 07:34:33;;;;;;;6.47;5.88;;;24.40;50.60;;;;;;5088055;28;20570;-85
2022/06/16 07:37:00;;;;;;;6.18;5.68;;;24.60;49.90;;;;;;5075971;28;20229;-85
2022/06/16 07:39:26;;;;;;;6.68;5.97;;;24.80;49.30;;;;;;5066782;28;20255;-85
2022/06/16 07:41:52;;;;;;;6.22;5.78;;;24.90;49.40;;;;;;5075222;28;20231;-85
2022/06/16 07:44:18;;;;;;;7.13;6.20;;;25.10;49.30;;;;;;5082528;28;20227;-85
2022/06/16 07:46:46;;;;;;;6.07;5.57;;;25.00;48.70;;;;;;5065431;28;20213;-85
2022/06/16 07:49:15;;;;;;;7.45;5.43;;;25.00;48.60;;;;;;5075565;28;20192;-85
2022/06/16 07:51:42;;;;;;;6.40;5.85;;;25.10;49.10;;;;;;5073730;28;20195;-85
2022/06/16 07:54:10;;;;;;;6.45;5.85;;;25.20;48.00;;;;;;5085513;28;20203;-84
2022/06/16 07:56:36;;;;;;;7.00;6.40;;;25.20;47.80;;;;;;5088527;28;20201;-85
2022/06/16 07:59:02;;;;;;;5.97;5.47;;;25.10;48.60;;;;;;5080142;28;20245;-85
2022/06/16 08:01:28;;;;;;;6.30;5.80;;;25.20;48.30;;;;;;5082318;28;20705;-85
2022/06/16 08:03:54;;;;;;;8.77;6.38;;;25.30;48.80;;;;;;5070262;28;20214;-85
2022/06/16 08:06:26;;;;;;;6.60;6.07;;;25.40;49.10;;;;;;5070100;28;20274;-85
2022/06/16 08:08:52;;;;;;;6.28;5.68;;;25.60;48.30;;;;;;5052319;28;20195;-85
2022/06/16 08:14:04;;;;;;;6.97;6.28;;;25.80;47.70;;;;;;5083557;28;20219;-85
2022/06/16 08:16:33;;;;;;;6.05;5.63;;;25.90;46.90;;;;;;5076967;28;20184;-85
2022/06/16 08:19:01;;;;;;;6.30;5.80;;;26.10;46.80;;;;;;5073457;28;20198;-85
2022/06/16 08:21:27;;;;;;;6.80;6.20;;;26.20;46.50;;;;;;5057919;28;20658;-85
2022/06/16 08:23:53;;;;;;;7.88;5.78;;;26.30;46.00;;;;;;5076450;28;20208;-85
2022/06/16 08:26:20;;;;;;;6.93;6.40;;;26.30;46.90;;;;;;5096231;28;20180;-85
2022/06/16 08:28:48;;;;;;;6.82;6.32;;;26.40;45.50;;;;;;5080624;28;20180;-85
2022/06/16 08:31:17;;;;;;;6.03;5.63;;;26.40;45.00;;;;;;5077688;28;20904;-85
2022/06/16 08:33:43;;;;;;;7.47;6.80;;;26.50;45.60;;;;;;5071852;28;20696;-85
2022/06/16 08:36:09;;;;;;;6.18;5.78;;;26.50;45.00;;;;;;5076594;28;20194;-85
2022/06/16 08:38:34;;;;;;;8.02;6.95;;;26.50;46.00;;;;;;5075979;28;20195;-85
2022/06/16 08:41:12;;;;;;;6.88;6.40;;;26.70;45.20;;;;;;5083922;28;20184;-85
2022/06/16 08:44:21;;;;;;;6.90;6.43;;;26.70;44.20;;;;;;5082822;28;20265;-85
2022/06/16 08:46:53;;;;;;;6.53;6.00;;;26.80;44.10;;;;;;5070088;28;20188;-84
2022/06/16 08:49:32;;;;;;;6.72;6.22;;;26.90;43.80;;;;;;5051008;28;20222;-85
2022/06/16 08:52:35;;;;;;;7.10;6.60;;;27.00;44.70;;;;;;5066933;28;20678;-86
2022/06/16 08:55:19;;;;;;;7.20;6.70;;;27.30;43.10;;;;;;5077166;28;20756;-85
2022/06/16 08:57:53;;;;;;;6.75;6.15;;;27.40;43.90;;;;;;5078990;28;20172;-85
2022/06/16 09:00:26;;;;;;;7.60;6.80;;;27.40;43.30;;;;;;5079868;28;20208;-85
2022/06/16 09:02:59;;;;;;;6.82;6.43;;;27.40;42.40;;;;;;5067454;28;20655;-85
2022/06/16 09:05:57;;;;;;;6.88;6.30;;;27.40;42.10;;;;;;5077215;28;20697;-85
2022/06/16 09:08:37;;;;;;;7.30;6.78;;;27.60;42.80;;;;;;5082525;28;20195;-85
2022/06/16 09:11:32;;;;;;;6.60;6.15;;;27.80;41.80;;;;;;5079652;28;20195;-85
2022/06/16 09:15:10;;;;;;;7.18;6.43;;;28.20;41.30;;;;;;5072641;28;20220;-86
2022/06/16 09:17:29;;;;;;;6.45;6.05;;;28.30;41.10;;;;;;5070458;28;20200;-85
2022/06/16 09:20:05;;;;;;;7.03;6.25;;;28.70;41.70;;;;;;5071042;28;20270;-85
2022/06/16 09:22:42;;;;;;;6.68;6.18;;;28.80;40.70;;;;;;5078816;28;20191;-85
2022/06/16 09:25:33;;;;;;;7.10;6.45;;;28.70;38.50;;;;;;5083357;28;20206;-85
2022/06/16 09:28:09;;;;;;;7.15;6.65;;;28.70;38.70;;;;;;5083620;28;20183;-85
2022/06/16 09:30:40;;;;;;;6.55;5.97;;;28.50;39.30;;;;;;5071034;28;20170;-85
2022/06/16 09:33:20;;;;;;;6.20;5.80;;;28.40;39.40;;;;;;5053220;28;20219;-86
2022/06/16 09:36:01;;;;;;;7.55;6.30;;;28.40;39.90;;;;;;5057205;28;20187;-85
2022/06/16 09:38:54;;;;;;;6.68;6.22;;;28.30;40.00;;;;;;5070963;28;20168;-85
2022/06/16 09:44:28;;;;;;;6.85;6.38;;;28.80;39.40;;;;;;5081272;28;20306;-85
2022/06/16 09:47:01;;;;;;;6.95;6.40;;;29.00;39.40;;;;;;5082125;28;20179;-85
2022/06/16 09:49:36;;;;;;;6.70;6.18;;;28.90;38.60;;;;;;5072250;28;20251;-85
2022/06/16 09:52:10;;;;;;;6.63;5.90;;;29.20;39.20;;;;;;5076085;28;20321;-85
2022/06/16 09:54:50;;;;;;;6.00;5.63;;;29.40;38.40;;;;;;5075245;28;20190;-85
2022/06/16 09:57:22;;;;;;;6.38;5.85;;;29.70;38.20;;;;;;5078713;28;20461;-85
2022/06/16 10:00:00;;;;;;;6.25;5.07;;;29.80;35.00;;;;;;5092213;28;20191;-85
2022/06/16 10:02:35;;;;;;;6.18;5.30;;;29.80;36.20;;;;;;5088307;28;20195;-85
2022/06/16 10:05:01;;;;;;;5.88;5.38;;;29.80;34.60;;;;;;5097040;28;20241;-85
2022/06/16 10:07:33;;;;;;;5.57;5.18;;;29.50;34.40;;;;;;5078801;28;20191;-85
2022/06/16 10:10:06;;;;;;;6.63;5.50;;;29.60;34.40;;;;;;5076041;28;20275;-86
2022/06/16 10:12:52;;;;;;;6.43;5.85;;;29.60;35.50;;;;;;5075268;28;20215;-85
2022/06/16 10:15:24;;;;;;;6.55;6.07;;;29.70;34.70;;;;;;5064637;28;20176;-86
2022/06/16 10:17:51;;;;;;;6.45;5.80;;;29.70;34.50;;;;;;5071715;28;20261;-86
2022/06/16 10:20:19;;;;;;;6.93;6.22;;;29.80;35.10;;;;;;5077375;28;20891;-86
2022/06/16 10:22:50;;;;;;;5.97;5.47;;;29.90;33.90;;;;;;5055379;28;20278;-86
2022/06/16 10:25:32;;;;;;;7.07;6.03;;;29.90;35.00;;;;;;5066794;28;20199;-85
2022/06/16 10:28:21;;;;;;;6.30;5.63;;;30.00;35.10;;;;;;5072606;28;20769;-86
2022/06/16 10:30:46;;;;;;;6.07;5.57;;;30.30;34.10;;;;;;5066603;28;20653;-86
2022/06/16 10:33:19;;;;;;;5.57;5.07;;;30.60;33.50;;;;;;5067714;28;20234;-86
2022/06/16 10:35:50;;;;;;;5.78;5.38;;;30.90;32.10;;;;;;5054023;28;20187;-85
2022/06/16 10:38:26;;;;;;;5.65;5.18;;;30.70;32.80;;;;;;5076798;28;20289;-86
2022/06/16 10:40:52;;;;;;;5.85;5.20;;;30.90;32.60;;;;;;5078779;28;20703;-85
2022/06/16 10:43:19;;;;;;;5.97;5.47;;;30.90;32.50;;;;;;5078667;28;20227;-86
2022/06/16 10:45:57;;;;;;;6.40;5.80;;;30.90;32.70;;;;;;5077138;28;20187;-85
2022/06/16 10:48:35;;;;;;;5.70;5.22;;;31.00;32.60;;;;;;5077300;28;20305;-86
2022/06/16 10:51:08;;;;;;;6.43;5.85;;;31.30;31.50;;;;;;5069882;28;20198;-85
2022/06/16 10:53:40;;;;;;;5.63;5.25;;;31.60;31.10;;;;;;5072019;28;20214;-86
2022/06/16 10:56:10;;;;;;;5.80;5.30;;;31.90;31.60;;;;;;5083098;28;20203;-85
2022/06/16 10:58:46;;;;;;;5.80;5.40;;;32.20;30.90;;;;;;5088319;28;20301;-86
2022/06/16 11:01:21;;;;;;;6.72;6.13;;;32.40;30.30;;;;;;5083916;28;20175;-86
2022/06/16 11:04:06;;;;;;;6.10;5.70;;;32.60;29.90;;;;;;5067920;28;20378;-85
2022/06/16 11:06:33;;;;;;;6.65;6.03;;;32.20;30.30;;;;;;5079869;28;20193;-86
2022/06/16 11:09:04;;;;;;;6.22;5.80;;;32.20;30.90;;;;;;5076494;28;20179;-85
2022/06/16 11:11:52;;;;;;;6.22;5.80;;;32.60;30.10;;;;;;5077838;28;20229;-86
2022/06/16 11:14:39;;;;;;;7.05;6.53;;;32.60;30.30;;;;;;5060848;28;20278;-85
2022/06/16 11:17:27;;;;;;;6.38;5.88;;;32.60;30.20;;;;;;5078057;28;20256;-85
2022/06/16 11:20:17;;;;;;;6.78;5.95;;;32.90;30.00;;;;;;5083433;28;20172;-85
2022/06/16 11:22:46;;;;;;;7.05;6.45;;;32.90;29.40;;;;;;5077947;28;20191;-86
2022/06/16 11:25:22;;;;;;;7.15;6.43;;;32.40;30.00;;;;;;5082014;28;20275;-86
2022/06/16 11:27:50;;;;;;;6.57;6.07;;;32.00;31.30;;;;;;5080495;28;20179;-86
2022/06/16 11:30:29;;;;;;;6.35;5.75;;;32.40;30.90;;;;;;5079174;28;20213;-86
2022/06/16 11:32:55;;;;;;;7.03;6.47;;;32.60;29.90;;;;;;5074092;28;20202;-85
2022/06/16 11:35:37;;;;;;;7.15;6.60;;;33.00;30.00;;;;;;5084784;28;20542;-86
2022/06/16 11:38:30;;;;;;;7.32;6.70;;;33.10;29.70;;;;;;5078507;28;20299;-85
2022/06/16 11:41:01;;;;;;;6.75;6.35;;;33.20;30.00;;;;;;5078338;28;20201;-86
2022/06/16 11:43:48;;;;;;;6.50;6.00;;;33.10;29.60;;;;;;5071017;28;20306;-86
2022/06/16 11:46:45;;;;;;;7.43;6.93;;;33.10;29.60;;;;;;5076361;28;20191;-86
2022/06/16 11:49:29;;;;;;;6.97;6.47;;;33.60;29.20;;;;;;5074874;28;20207;-86
2022/06/16 11:52:20;;;;;;;6.78;6.28;;;33.70;28.90;;;;;;5076913;28;20187;-86
2022/06/16 11:54:52;;;;;;;6.65;6.07;;;33.50;29.40;;;;;;5076045;28;20620;-85
2022/06/16 11:57:27;;;;;;;13.57;7.70;;;33.90;29.50;;;;;;5075694;28;20183;-86
2022/06/16 12:00:17;;;;;;;7.55;6.85;;;33.90;29.70;;;;;;5064830;28;20741;-85
2022/06/16 12:03:15;;;;;;;10.65;6.65;;;34.20;29.40;;;;;;5075449;28;20196;-87
2022/06/16 12:06:19;;;;;;;6.60;6.10;;;33.60;29.70;;;;;;5070857;28;20183;-86
2022/06/16 12:08:52;;;;;;;7.43;6.95;;;33.10;30.50;;;;;;5059505;28;20469;-86
2022/06/16 12:11:41;;;;;;;7.07;6.38;;;33.10;30.00;;;;;;5062347;28;20202;-86
2022/06/16 12:14:23;;;;;;;7.57;7.07;;;32.90;29.80;;;;;;5055381;28;20219;-87
2022/06/16 12:17:08;;;;;;;7.25;6.65;;;32.30;31.90;;;;;;5074508;28;20171;-86
2022/06/16 12:19:45;;;;;;;7.20;6.70;;;32.30;31.60;;;;;;5087277;28;20745;-85
2022/06/16 12:22:25;;;;;;;8.73;7.93;;;32.30;31.40;;;;;;5078854;28;20183;-84
2022/06/16 12:25:04;;;;;;;7.13;6.63;;;32.30;32.60;;;;;;5082384;28;20747;-85
2022/06/16 12:27:39;;;;;;;7.07;6.63;;;32.60;31.50;;;;;;5073827;28;20233;-85
2022/06/16 12:30:14;;;;;;;8.60;7.30;;;33.50;30.30;;;;;;5082529;28;20260;-85
2022/06/16 12:32:48;;;;;;;7.72;7.13;;;33.90;29.20;;;;;;5094034;28;20237;-85
2022/06/16 12:35:27;;;;;;;7.25;6.85;;;34.00;29.30;;;;;;5082202;28;20881;-85
2022/06/16 12:38:02;;;;;;;7.45;6.95;;;34.20;29.20;;;;;;5086715;28;20758;-85
2022/06/16 12:40:38;;;;;;;7.65;7.13;;;34.40;29.20;;;;;;5078241;28;20182;-85
2022/06/16 12:43:12;;;;;;;7.85;7.35;;;34.50;29.30;;;;;;5073760;28;20233;-85
2022/06/16 12:45:41;;;;;;;7.90;7.40;;;35.00;29.40;;;;;;5078155;28;20192;-85
2022/06/16 12:48:19;;;;;;;8.32;7.72;;;35.10;29.00;;;;;;5080587;28;20187;-85
2022/06/16 12:51:14;;;;;;;8.15;7.35;;;35.10;29.00;;;;;;5062384;28;20305;-84
2022/06/16 12:53:53;;;;;;;7.60;7.07;;;35.10;28.80;;;;;;5078286;28;20227;-85
2022/06/16 12:56:47;;;;;;;7.72;7.20;;;34.60;29.00;;;;;;5078388;28;20654;-84
2022/06/16 12:59:38;;;;;;;7.72;7.18;;;34.10;29.50;;;;;;5080679;28;20176;-85
2022/06/16 13:02:06;;;;;;;8.15;7.65;;;33.70;29.70;;;;;;5080733;28;20266;-85
2022/06/16 13:04:34;;;;;;;8.00;7.50;;;33.90;29.30;;;;;;5080284;28;20212;-85
2022/06/16 13:07:12;;;;;;;8.25;7.75;;;34.60;29.20;;;;;;5072121;28;20530;-85
2022/06/16 13:09:39;;;;;;;8.32;7.82;;;35.10;29.10;;;;;;5088468;28;20281;-85
2022/06/16 13:12:12;;;;;;;7.65;7.25;;;35.50;28.20;;;;;;5080458;28;20297;-85
2022/06/16 13:14:46;;;;;;;7.93;7.40;;;35.50;28.30;;;;;;5091264;28;20199;-84
2022/06/16 13:17:13;;;;;;;8.50;7.90;;;36.20;28.10;;;;;;5088167;28;20182;-85
2022/06/16 13:19:45;;;;;;;8.50;7.82;;;36.80;26.50;;;;;;5085918;28;20175;-85
2022/06/16 13:22:38;;;;;;;9.02;8.43;;;37.30;26.80;;;;;;5081616;28;20182;-85
2022/06/16 13:25:13;;;;;;;8.18;7.65;;;36.40;27.30;;;;;;5054810;28;20262;-84
2022/06/16 13:27:39;;;;;;;8.00;7.40;;;35.60;28.40;;;;;;5061138;28;20187;-85
2022/06/16 13:30:05;;;;;;;8.07;7.45;;;34.70;28.70;;;;;;5080694;28;20369;-85
2022/06/16 13:33:01;;;;;;;7.78;7.28;;;34.40;28.30;;;;;;5080539;28;20214;-85